createdAt,value
2023-03-25T00:04:29.841Z,4.25
2023-03-25T00:07:27.212Z,5.40
2023-03-25T00:10:18.378Z,4.85
2023-03-25T00:16:43.426Z,6.75
2023-03-25T00:19:27.659Z,5.95
2023-03-25T00:25:47.834Z,6.32
2023-03-25T00:28:47.466Z,4.47
2023-03-25T00:34:41.147Z,3.83
2023-03-25T00:37:36.594Z,3.05
2023-03-25T00:43:23.603Z,3.97
2023-03-25T00:46:02.297Z,3.50
2023-03-25T00:48:54.662Z,3.20
2023-03-25T00:51:53.292Z,2.20
2023-03-25T00:54:38.485Z,3.00
2023-03-25T00:57:27.079Z,4.22
2023-03-25T01:00:09.777Z,5.22
2023-03-25T01:02:42.578Z,5.05
2023-03-25T01:05:26.178Z,4.80
2023-03-25T01:10:44.180Z,4.38
2023-03-25T01:13:11.902Z,4.93
2023-03-25T01:15:41.631Z,4.22
2023-03-25T01:18:10.492Z,3.38
2023-03-25T01:23:33.792Z,2.58
2023-03-25T01:26:05.560Z,4.60
2023-03-25T01:28:41.570Z,5.43
2023-03-25T01:31:21.739Z,3.58
2023-03-25T01:34:05.562Z,4.30
2023-03-25T01:36:43.664Z,5.53
2023-03-25T01:39:16.142Z,5.97
2023-03-25T01:41:50.292Z,4.03
2023-03-25T01:44:27.904Z,4.07
2023-03-25T01:47:10.193Z,3.97
2023-03-25T01:49:44.967Z,4.68
2023-03-25T01:52:18.844Z,6.05
2023-03-25T01:54:51.541Z,4.93
2023-03-25T01:57:34.091Z,5.30
2023-03-25T02:00:10.089Z,3.67
2023-03-25T02:02:50.273Z,4.97
2023-03-25T02:05:33.303Z,3.47
2023-03-25T02:08:15.702Z,4.00
2023-03-25T02:11:07.926Z,4.10
2023-03-25T02:13:37.980Z,4.07
2023-03-25T02:16:27.716Z,4.93
2023-03-25T02:19:44.852Z,2.55
2023-03-25T02:26:07.707Z,4.15
2023-03-25T02:29:09.494Z,5.43
2023-03-25T02:35:41.482Z,2.67
2023-03-25T02:38:47.664Z,5.97
2023-03-25T02:41:26.463Z,4.40
2023-03-25T02:44:12.389Z,5.07
2023-03-25T02:46:48.704Z,6.00
2023-03-25T02:49:44.195Z,4.50
2023-03-25T02:52:40.069Z,3.35
2023-03-25T02:55:11.899Z,2.85
2023-03-25T02:57:56.296Z,4.25
2023-03-25T03:00:31.126Z,2.75
2023-03-25T03:03:05.709Z,2.42
2023-03-25T03:05:39.414Z,4.00
2023-03-25T03:08:19.778Z,4.07
2023-03-25T03:11:30.567Z,3.40
2023-03-25T03:14:25.713Z,2.90
2023-03-25T03:17:25.338Z,2.85
2023-03-25T03:23:10.074Z,1.95
2023-03-25T03:26:00.432Z,4.22
2023-03-25T03:32:21.887Z,3.63
2023-03-25T03:35:01.929Z,3.65
2023-03-25T03:37:42.128Z,4.13
2023-03-25T03:40:49.866Z,3.42
2023-03-25T03:43:35.223Z,2.75
2023-03-25T03:46:15.073Z,2.63
2023-03-25T03:48:58.946Z,3.65
2023-03-25T03:51:58.270Z,3.83
2023-03-25T03:54:28.313Z,2.33
2023-03-25T03:56:59.304Z,3.13
2023-03-25T03:59:46.152Z,2.38
2023-03-25T04:02:49.564Z,1.10
2023-03-25T04:05:18.365Z,4.05
2023-03-25T04:08:00.964Z,2.38
2023-03-25T04:10:47.117Z,5.57
2023-03-25T04:13:17.920Z,2.17
2023-03-25T04:15:44.883Z,5.07
2023-03-25T04:18:17.854Z,3.53
2023-03-25T04:20:49.855Z,3.10
2023-03-25T04:23:16.757Z,2.42
2023-03-25T04:25:47.819Z,3.67
2023-03-25T04:28:17.827Z,4.32
2023-03-25T04:30:49.025Z,2.17
2023-03-25T04:33:15.927Z,3.83
2023-03-25T04:35:43.225Z,2.97
2023-03-25T04:38:10.235Z,3.50
2023-03-25T04:40:40.811Z,3.10
2023-03-25T04:43:07.776Z,3.85
2023-03-25T04:45:36.545Z,3.80
2023-03-25T04:48:06.601Z,5.97
2023-03-25T04:50:37.258Z,2.92
2023-03-25T04:53:08.049Z,4.25
2023-03-25T04:55:35.891Z,3.28
2023-03-25T04:58:07.845Z,5.03
2023-03-25T05:00:35.670Z,6.75
2023-03-25T05:03:02.853Z,2.80
2023-03-25T05:05:45.706Z,9.07
2023-03-25T05:08:15.535Z,5.95
2023-03-25T05:10:43.609Z,5.82
2023-03-25T05:15:48.417Z,6.63
2023-03-25T05:18:22.528Z,2.78
2023-03-25T05:20:53.643Z,5.13
2023-03-25T05:23:26.019Z,3.72
2023-03-25T05:25:54.053Z,6.88
2023-03-25T05:28:34.780Z,5.55
2023-03-25T05:31:08.381Z,3.38
2023-03-25T05:33:55.136Z,3.78
2023-03-25T05:36:25.708Z,3.80
2023-03-25T05:38:58.916Z,4.88
2023-03-25T05:41:39.258Z,3.63
2023-03-25T05:44:07.324Z,4.53
2023-03-25T05:49:05.219Z,2.80
2023-03-25T05:51:51.224Z,4.00
2023-03-25T05:54:21.087Z,5.70
2023-03-25T05:56:48.527Z,2.97
2023-03-25T05:59:16.775Z,4.65
2023-03-25T06:01:46.802Z,3.25
2023-03-25T06:04:14.845Z,4.03
2023-03-25T06:09:12.711Z,5.15
2023-03-25T06:11:46.782Z,4.47
2023-03-25T06:14:13.699Z,5.50
2023-03-25T06:16:41.998Z,5.28
2023-03-25T06:19:09.617Z,5.55
2023-03-25T06:21:36.435Z,5.53
2023-03-25T06:24:03.754Z,4.18
2023-03-25T06:26:30.851Z,4.60
2023-03-25T06:29:01.452Z,4.63
2023-03-25T06:31:29.107Z,4.88
2023-03-25T06:33:56.988Z,3.75
2023-03-25T06:36:25.951Z,3.92
2023-03-25T06:38:54.292Z,6.55
2023-03-25T06:41:22.092Z,6.25
2023-03-25T06:46:18.148Z,4.82
2023-03-25T06:48:45.429Z,4.75
2023-03-25T06:51:12.215Z,6.38
2023-03-25T06:53:39.425Z,4.97
2023-03-25T06:56:06.771Z,4.35
2023-03-25T06:58:36.540Z,4.13
2023-03-25T07:01:07.852Z,4.78
2023-03-25T07:03:39.281Z,5.80
2023-03-25T07:06:07.198Z,5.75
2023-03-25T07:08:34.764Z,5.35
2023-03-25T07:11:04.167Z,4.85
2023-03-25T07:13:34.304Z,5.45
2023-03-25T07:16:01.701Z,5.82
2023-03-25T07:18:29.231Z,5.00
2023-03-25T07:20:59.266Z,4.90
2023-03-25T07:23:26.523Z,4.25
2023-03-25T07:25:53.593Z,4.55
2023-03-25T07:28:23.218Z,5.65
2023-03-25T07:30:50.537Z,3.95
2023-03-25T07:33:17.764Z,3.58
2023-03-25T07:35:45.131Z,4.90
2023-03-25T07:38:12.317Z,6.32
2023-03-25T07:40:39.005Z,4.13
2023-03-25T07:43:06.376Z,4.18
2023-03-25T07:45:55.968Z,4.57
2023-03-25T07:48:23.181Z,3.75
2023-03-25T07:50:53.127Z,3.97
2023-03-25T07:53:20.028Z,3.47
2023-03-25T07:55:46.958Z,3.58
2023-03-25T07:58:13.944Z,4.13
2023-03-25T08:00:40.749Z,3.53
2023-03-25T08:03:08.459Z,3.17
2023-03-25T08:08:06.625Z,2.85
2023-03-25T08:10:35.284Z,3.72
2023-03-25T08:13:03.597Z,6.35
2023-03-25T08:15:30.854Z,4.25
2023-03-25T08:17:58.050Z,4.40
2023-03-25T08:20:25.017Z,3.97
2023-03-25T08:22:51.737Z,5.10
2023-03-25T08:25:25.205Z,4.73
2023-03-25T08:27:54.985Z,3.33
2023-03-25T08:30:25.852Z,4.25
2023-03-25T08:32:59.316Z,3.63
2023-03-25T08:35:29.604Z,6.18
2023-03-25T08:38:00.102Z,4.53
2023-03-25T08:40:28.286Z,4.32
2023-03-25T08:42:55.600Z,4.80
2023-03-25T08:45:23.170Z,4.47
2023-03-25T08:50:18.444Z,4.15
2023-03-25T08:52:46.598Z,6.10
2023-03-25T08:55:16.270Z,3.28
2023-03-25T08:57:43.448Z,3.03
2023-03-25T09:00:14.163Z,4.80
2023-03-25T09:02:42.691Z,2.92
2023-03-25T09:05:16.393Z,3.95
2023-03-25T09:07:44.058Z,4.00
2023-03-25T09:10:13.720Z,6.22
2023-03-25T09:12:41.143Z,6.10
2023-03-25T09:15:13.273Z,3.83
2023-03-25T09:17:41.784Z,6.05
2023-03-25T09:22:51.671Z,3.08
2023-03-25T09:25:20.838Z,3.65
2023-03-25T09:27:48.811Z,2.78
2023-03-25T09:30:23.406Z,3.72
2023-03-25T09:32:55.985Z,3.58
2023-03-25T09:35:23.320Z,4.20
2023-03-25T09:37:59.865Z,4.07
2023-03-25T09:40:27.347Z,4.90
2023-03-25T09:43:19.431Z,5.57
2023-03-25T09:45:51.969Z,2.85
2023-03-25T09:48:30.986Z,3.90
2023-03-25T09:51:08.352Z,5.63
2023-03-25T09:53:45.872Z,4.40
2023-03-25T09:56:19.897Z,3.17
2023-03-25T09:58:52.564Z,4.22
2023-03-25T10:01:55.677Z,2.63
2023-03-25T10:05:11.059Z,3.38
2023-03-25T10:07:59.743Z,4.00
2023-03-25T10:10:38.512Z,3.33
2023-03-25T10:13:40.574Z,4.15
2023-03-25T10:16:13.656Z,4.07
2023-03-25T10:19:14.413Z,4.05
2023-03-25T10:22:09.423Z,5.05
2023-03-25T10:24:51.807Z,4.43
2023-03-25T10:27:45.926Z,6.95
2023-03-25T10:30:41.777Z,4.05
2023-03-25T10:33:37.240Z,3.28
2023-03-25T10:36:08.466Z,4.93
2023-03-25T10:38:39.326Z,2.67
2023-03-25T10:41:36.483Z,3.88
2023-03-25T10:46:48.076Z,4.45
2023-03-25T10:49:19.357Z,4.10
2023-03-25T10:51:48.371Z,4.70
2023-03-25T10:54:17.984Z,5.25
2023-03-25T10:56:59.143Z,4.70
2023-03-25T10:59:37.892Z,3.22
2023-03-25T11:02:16.037Z,3.25
2023-03-25T11:04:44.929Z,5.03
2023-03-25T11:07:27.731Z,3.58
2023-03-25T11:09:54.623Z,4.45
2023-03-25T11:12:33.308Z,3.78
2023-03-25T11:15:15.460Z,6.28
2023-03-25T11:17:45.215Z,3.95
2023-03-25T11:20:38.110Z,4.63
2023-03-25T11:23:34.447Z,5.05
2023-03-25T11:26:08.719Z,2.80
2023-03-25T11:28:40.417Z,3.25
2023-03-25T11:31:18.469Z,2.30
2023-03-25T11:34:00.769Z,3.47
2023-03-25T11:36:30.924Z,3.42
2023-03-25T11:39:01.777Z,2.13
2023-03-25T11:41:32.273Z,4.20
2023-03-25T11:44:00.245Z,4.88
2023-03-25T11:46:27.346Z,3.60
2023-03-25T11:48:55.718Z,3.30
2023-03-25T11:51:32.882Z,5.25
2023-03-25T11:54:09.928Z,4.45
2023-03-25T11:56:42.666Z,3.45
2023-03-25T11:59:25.187Z,3.03
2023-03-25T12:02:14.896Z,2.67
2023-03-25T12:05:12.867Z,3.00
2023-03-25T12:07:49.169Z,2.88
2023-03-25T12:11:00.118Z,3.47
2023-03-25T12:13:40.563Z,3.88
2023-03-25T12:16:23.757Z,3.42
2023-03-25T12:19:02.756Z,3.83
2023-03-25T12:21:48.230Z,2.35
2023-03-25T12:24:41.310Z,3.25
2023-03-25T12:27:29.711Z,3.85
2023-03-25T12:30:25.107Z,3.72
2023-03-25T12:33:22.363Z,5.05
2023-03-25T12:38:36.831Z,3.25
2023-03-25T12:41:22.518Z,6.18
2023-03-25T12:44:01.291Z,2.60
2023-03-25T12:46:36.687Z,5.82
2023-03-25T12:49:07.222Z,2.72
2023-03-25T12:52:00.508Z,3.10
2023-03-25T12:54:39.410Z,2.97
2023-03-25T12:57:32.681Z,2.60
2023-03-25T13:00:26.767Z,3.97
2023-03-25T13:03:31.247Z,3.05
2023-03-25T13:06:20.021Z,4.85
2023-03-25T13:09:23.504Z,3.08
2023-03-25T13:15:03.244Z,4.10
2023-03-25T13:17:39.186Z,3.17
2023-03-25T13:20:11.317Z,3.45
2023-03-25T13:22:51.434Z,4.95
2023-03-25T13:25:28.342Z,3.42
2023-03-25T13:28:02.191Z,2.78
2023-03-25T13:30:42.411Z,2.35
2023-03-25T13:33:16.919Z,3.72
2023-03-25T13:35:54.256Z,3.10
2023-03-25T13:41:27.369Z,1.70
2023-03-25T13:44:07.339Z,3.20
2023-03-25T13:46:52.004Z,3.55
2023-03-25T13:49:28.416Z,1.70
2023-03-25T13:52:04.987Z,4.30
2023-03-25T13:54:48.793Z,2.63
2023-03-25T13:57:32.369Z,2.60
2023-03-25T14:00:21.775Z,3.58
2023-03-25T14:03:10.113Z,2.20
2023-03-25T14:06:09.206Z,4.20
2023-03-25T14:09:06.686Z,4.85
2023-03-25T14:12:10.224Z,3.38
2023-03-25T14:14:45.613Z,2.47
2023-03-25T14:19:58.834Z,3.38
2023-03-25T14:22:32.169Z,2.40
2023-03-25T14:25:00.372Z,2.92
2023-03-25T14:27:34.211Z,2.45
2023-03-25T14:30:08.942Z,5.40
2023-03-25T14:32:41.703Z,3.65
2023-03-25T14:35:38.722Z,4.25
2023-03-25T14:38:09.044Z,2.85
2023-03-25T14:43:30.047Z,4.80
2023-03-25T14:46:18.769Z,4.95
2023-03-25T14:48:50.584Z,2.67
2023-03-25T14:51:28.192Z,4.43
2023-03-25T14:56:55.511Z,2.67
2023-03-25T14:59:29.287Z,2.78
2023-03-25T15:02:12.337Z,2.70
2023-03-25T15:04:44.453Z,4.00
2023-03-25T15:07:20.826Z,2.63
2023-03-25T15:09:57.775Z,3.53
2023-03-25T15:12:27.440Z,4.28
2023-03-25T15:15:27.089Z,5.03
2023-03-25T15:18:11.258Z,23.58
2023-03-25T15:24:48.280Z,9.38
2023-03-25T15:27:48.234Z,9.43
2023-03-25T15:33:42.517Z,4.20
2023-03-25T15:36:12.236Z,7.43
2023-03-25T15:38:59.885Z,9.65
2023-03-25T15:41:35.851Z,7.43
2023-03-25T15:44:13.835Z,7.38
2023-03-25T15:47:00.300Z,11.82
2023-03-25T15:49:42.007Z,15.07
2023-03-25T15:52:12.031Z,17.38
2023-03-25T15:54:56.608Z,12.05
2023-03-25T15:57:33.348Z,7.88
2023-03-25T16:00:12.141Z,7.10
2023-03-25T16:03:07.509Z,9.32
2023-03-25T16:05:39.256Z,7.90
2023-03-25T16:08:23.301Z,6.10
2023-03-25T16:10:50.820Z,4.35
2023-03-25T16:13:24.269Z,2.65
2023-03-25T16:16:02.068Z,9.00
2023-03-25T16:18:32.716Z,8.48
2023-03-25T16:21:04.295Z,6.43
2023-03-25T16:23:36.566Z,8.60
2023-03-25T16:26:11.508Z,7.30
2023-03-25T16:28:47.057Z,6.72
2023-03-25T16:31:36.503Z,5.93
2023-03-25T16:34:13.857Z,7.13
2023-03-25T16:36:49.987Z,8.68
2023-03-25T16:39:18.668Z,10.70
2023-03-25T16:41:47.892Z,15.88
2023-03-25T16:44:33.109Z,15.43
2023-03-25T16:47:02.314Z,15.57
2023-03-25T16:49:37.818Z,10.70
2023-03-25T16:52:14.719Z,10.45
2023-03-25T16:55:11.367Z,10.77
2023-03-25T16:57:41.622Z,15.88
2023-03-25T17:00:23.098Z,17.42
2023-03-25T17:02:51.143Z,18.38
2023-03-25T17:05:35.514Z,13.18
2023-03-25T17:08:17.890Z,12.52
2023-03-25T17:10:53.769Z,12.43
2023-03-25T17:13:34.304Z,22.80
2023-03-25T17:16:02.159Z,19.10
2023-03-25T17:21:01.795Z,12.00
2023-03-25T17:23:48.872Z,10.13
2023-03-25T17:26:21.423Z,7.45
2023-03-25T17:28:51.522Z,9.88
2023-03-25T17:31:45.202Z,7.40
2023-03-25T17:34:18.239Z,8.23
2023-03-25T17:36:58.220Z,6.47
2023-03-25T17:39:35.572Z,6.78
2023-03-25T17:42:15.208Z,5.60
2023-03-25T17:44:52.136Z,6.85
2023-03-25T17:47:24.660Z,8.82
2023-03-25T17:49:55.986Z,12.50
2023-03-25T17:52:24.092Z,8.75
2023-03-25T17:54:52.340Z,7.05
2023-03-25T17:57:21.011Z,7.03
2023-03-25T17:59:58.672Z,5.45
2023-03-25T18:02:31.237Z,7.53
2023-03-25T18:04:59.636Z,7.57
2023-03-25T18:10:23.177Z,7.70
2023-03-25T18:12:59.962Z,7.20
2023-03-25T18:15:28.751Z,7.53
2023-03-25T18:17:59.860Z,8.35
2023-03-25T18:20:41.503Z,6.82
2023-03-25T18:23:13.731Z,7.53
2023-03-25T18:25:42.913Z,7.25
2023-03-25T18:28:12.944Z,7.75
2023-03-25T18:30:46.724Z,9.40
2023-03-25T18:33:20.087Z,9.10
2023-03-25T18:35:48.216Z,7.38
2023-03-25T18:38:37.056Z,8.45
2023-03-25T18:41:18.028Z,7.70
2023-03-25T18:43:52.420Z,8.65
2023-03-25T18:46:29.274Z,7.88
2023-03-25T18:52:00.176Z,5.80
2023-03-25T18:54:27.710Z,7.38
2023-03-25T18:57:01.581Z,7.88
2023-03-25T18:59:30.788Z,11.20
2023-03-25T19:01:58.916Z,9.75
2023-03-25T19:04:32.885Z,7.47
2023-03-25T19:07:05.990Z,8.00
2023-03-25T19:09:53.410Z,10.60
2023-03-25T19:12:24.012Z,8.98
2023-03-25T19:15:02.506Z,7.07
2023-03-25T19:17:39.133Z,6.97
2023-03-25T19:20:29.896Z,10.73
2023-03-25T19:23:08.734Z,7.93
2023-03-25T19:25:43.185Z,7.88
2023-03-25T19:28:42.308Z,5.57
2023-03-25T19:31:14.575Z,8.07
2023-03-25T19:33:43.011Z,8.45
2023-03-25T19:36:17.909Z,8.95
2023-03-25T19:38:59.224Z,9.95
2023-03-25T19:41:27.659Z,8.63
2023-03-25T19:43:56.600Z,7.30
2023-03-25T19:47:00.760Z,7.22
2023-03-25T19:49:39.296Z,6.82
2023-03-25T19:52:35.347Z,5.80
2023-03-25T19:58:17.504Z,6.72
2023-03-25T20:01:02.192Z,8.00
2023-03-25T20:06:21.538Z,6.13
2023-03-25T20:08:58.289Z,6.97
2023-03-25T20:11:29.337Z,5.30
2023-03-25T20:16:42.659Z,4.95
2023-03-25T20:19:28.230Z,10.25
2023-03-25T20:22:04.498Z,3.70
2023-03-25T20:24:44.145Z,5.03
2023-03-25T20:27:45.150Z,4.60
2023-03-25T20:30:26.877Z,5.00
2023-03-25T20:36:05.052Z,5.40
2023-03-25T20:38:56.117Z,5.88
2023-03-25T20:41:28.552Z,9.00
2023-03-25T20:43:57.948Z,5.38
2023-03-25T20:46:44.290Z,6.68
2023-03-25T20:49:14.617Z,8.80
2023-03-25T20:58:50.934Z,6.78
2023-03-25T21:01:27.684Z,4.95
2023-03-25T21:06:43.887Z,4.20
2023-03-25T21:09:11.967Z,7.40
2023-03-25T21:14:12.284Z,4.57
2023-03-25T21:16:41.004Z,3.85
2023-03-25T21:19:14.678Z,4.10
2023-03-25T21:21:45.610Z,4.80
2023-03-25T21:24:14.959Z,4.10
2023-03-25T21:26:45.904Z,6.82
2023-03-25T21:29:19.444Z,6.13
2023-03-25T21:31:57.213Z,4.65
2023-03-25T21:36:59.282Z,2.97
2023-03-25T21:39:27.304Z,4.55
2023-03-25T21:42:25.944Z,6.00
2023-03-25T21:44:56.280Z,3.47
2023-03-25T21:47:24.448Z,2.65
2023-03-25T21:49:54.930Z,3.35
2023-03-25T21:52:25.454Z,3.55
2023-03-25T21:54:55.242Z,1.92
2023-03-25T21:57:36.842Z,3.72
2023-03-25T22:00:34.600Z,2.75
2023-03-25T22:03:20.960Z,4.28
2023-03-25T22:06:11.044Z,4.35
2023-03-25T22:08:42.934Z,8.13
2023-03-25T22:11:38.258Z,4.25
2023-03-25T22:14:06.140Z,5.53
2023-03-25T22:16:37.269Z,5.22
2023-03-25T22:19:09.625Z,5.15
2023-03-25T22:25:18.136Z,5.07
2023-03-25T22:27:43.655Z,5.60
2023-03-25T22:30:12.549Z,5.57
2023-03-25T22:32:42.322Z,6.82
2023-03-25T22:35:16.931Z,7.95
2023-03-25T22:38:02.988Z,8.38
2023-03-25T22:40:37.440Z,7.25
2023-03-25T22:43:11.711Z,7.45
2023-03-25T22:45:43.271Z,7.93
2023-03-25T22:48:45.953Z,6.32
2023-03-25T22:51:26.369Z,7.75
2023-03-25T22:53:57.153Z,6.57
2023-03-25T22:56:29.426Z,7.75
2023-03-25T22:58:57.020Z,10.55
2023-03-25T23:01:26.977Z,7.00
2023-03-25T23:03:55.616Z,8.63
2023-03-25T23:06:24.189Z,7.97
2023-03-25T23:09:11.665Z,8.70
2023-03-25T23:11:43.490Z,5.43
2023-03-25T23:15:04.037Z,7.72
2023-03-25T23:17:29.597Z,6.93
2023-03-25T23:20:00.189Z,9.63
2023-03-25T23:22:28.940Z,7.65
2023-03-25T23:24:59.362Z,7.20
2023-03-25T23:27:29.134Z,8.95
2023-03-25T23:29:56.994Z,8.05
2023-03-25T23:32:24.605Z,9.88
2023-03-25T23:35:06.443Z,9.45
2023-03-25T23:38:19.051Z,7.63
2023-03-25T23:40:47.145Z,6.95
2023-03-25T23:43:22.617Z,5.10
2023-03-25T23:45:56.313Z,5.28
2023-03-25T23:51:14.999Z,13.30
2023-03-25T23:53:48.806Z,5.93
2023-03-25T23:56:21.921Z,7.57
2023-03-25T23:58:50.498Z,10.80
